Terminal Aerodrome Forecast
Issued by NWS

Home | Current Version | Previous Version | Text Only | Print | Product List | Glossary On
Versions: 1 2 3 4 5 6 7 8 9 10 11 12
000
FTUS46 KSGX 251700
TAFONT
TAF
KONT 251721Z 2518/2624 VRB05KT P6SM SCT100
     FM252000 25012KT P6SM SCT100
     FM260400 VRB04KT P6SM FEW100
     FM260900 VRB04KT 5SM BR HZ BKN010
     FM261600 VRB05KT P6SM SCT015
     FM262000 26010KT P6SM SCT200=

USA.gov is the U.S. government's official web portal to all federal, state and local government web resources and services.